Time;durP1;ratioP1;P1;durP2;ratioP2;P2;SDS_P1;SDS_P2;PMS_P1;PMS_P2;Temp;Humidity;BMP_temperature;BMP_pressure;BME280_temperature;BME280_humidity;BME280_pressure;Samples;Min_cycle;Max_cycle;Signal;HPM_P1;HPM_P2
2024/03/04 00:02:18;;;;;;;24.97;15.77;;;7.30;99.90;;;;;;5008574;28;20197;-87
2024/03/04 00:04:44;;;;;;;23.33;15.17;;;7.30;99.90;;;;;;4993587;28;20258;-87
2024/03/04 00:07:12;;;;;;;22.47;15.27;;;7.30;99.90;;;;;;5001554;28;20198;-87
2024/03/04 00:09:38;;;;;;;24.47;16.20;;;7.40;99.90;;;;;;4993458;28;20191;-87
2024/03/04 00:12:05;;;;;;;24.70;15.60;;;7.30;99.90;;;;;;5001699;28;20202;-87
2024/03/04 00:14:31;;;;;;;22.23;15.30;;;7.20;99.90;;;;;;4993484;28;20194;-86
2024/03/04 00:17:02;;;;;;;22.60;14.83;;;7.10;99.90;;;;;;4997616;28;20215;-87
2024/03/04 00:19:28;;;;;;;24.53;15.10;;;7.00;99.90;;;;;;4989678;28;20194;-87
2024/03/04 00:21:56;;;;;;;22.27;15.40;;;7.00;99.90;;;;;;5038140;28;20187;-87
2024/03/04 00:24:22;;;;;;;23.30;15.50;;;7.10;99.90;;;;;;5005669;28;20626;-86
2024/03/04 00:26:48;;;;;;;26.40;15.57;;;7.00;99.90;;;;;;4993213;28;20322;-86
2024/03/04 00:29:13;;;;;;;23.70;15.17;;;7.10;99.90;;;;;;5001049;28;20215;-87
2024/03/04 00:31:39;;;;;;;22.77;14.17;;;7.00;99.90;;;;;;4992958;28;20242;-86
2024/03/04 00:34:05;;;;;;;18.40;12.97;;;6.90;99.90;;;;;;5009117;28;20473;-87
2024/03/04 00:36:35;;;;;;;21.50;13.13;;;6.80;99.90;;;;;;5008831;28;20616;-86
2024/03/04 00:39:00;;;;;;;19.60;12.77;;;6.70;99.90;;;;;;5005258;28;20218;-87
2024/03/04 00:41:27;;;;;;;22.00;13.87;;;6.70;99.90;;;;;;5004713;28;20198;-86
2024/03/04 00:43:53;;;;;;;19.47;13.87;;;6.80;99.90;;;;;;4989839;28;20187;-87
2024/03/04 00:46:21;;;;;;;20.60;14.03;;;6.70;99.90;;;;;;4996787;28;20249;-86
2024/03/04 00:48:49;;;;;;;22.03;13.70;;;6.70;99.90;;;;;;5008985;28;20220;-87
2024/03/04 00:51:15;;;;;;;23.37;14.67;;;6.60;99.90;;;;;;4994438;28;20196;-86
2024/03/04 00:53:45;;;;;;;20.13;13.73;;;6.60;99.90;;;;;;5000538;28;20187;-86
2024/03/04 00:56:12;;;;;;;20.87;13.50;;;6.60;99.90;;;;;;5020303;28;20301;-86
2024/03/04 00:58:53;;;;;;;22.87;13.57;;;6.60;99.90;;;;;;5002699;28;20183;-86
2024/03/04 01:01:19;;;;;;;17.80;12.77;;;6.60;99.90;;;;;;4992614;28;20626;-88
2024/03/04 01:03:44;;;;;;;20.27;13.73;;;6.70;99.90;;;;;;5016086;28;20191;-87
2024/03/04 01:06:10;;;;;;;22.53;13.90;;;6.80;99.90;;;;;;5017394;28;20179;-86
2024/03/04 01:08:36;;;;;;;18.23;11.93;;;6.80;99.90;;;;;;5003695;28;20680;-86
2024/03/04 01:11:02;;;;;;;18.47;11.50;;;6.70;99.90;;;;;;5025239;28;20246;-86
2024/03/04 01:13:27;;;;;;;19.20;11.37;;;6.70;99.90;;;;;;4992517;28;20197;-86
2024/03/04 01:15:53;;;;;;;16.83;11.93;;;6.60;99.90;;;;;;5000232;28;20636;-86
2024/03/04 01:18:22;;;;;;;20.47;13.37;;;6.60;99.90;;;;;;5000279;28;20214;-87
2024/03/04 01:20:52;;;;;;;20.37;12.77;;;6.70;99.90;;;;;;4997540;28;20183;-86
2024/03/04 01:23:18;;;;;;;19.20;13.13;;;6.60;99.90;;;;;;4995183;28;20188;-85
2024/03/04 01:25:47;;;;;;;25.07;14.23;;;6.50;99.90;;;;;;5008033;28;20182;-85
2024/03/04 01:28:14;;;;;;;22.50;13.70;;;6.40;99.90;;;;;;4994276;28;20249;-86
2024/03/04 01:30:40;;;;;;;22.53;14.07;;;6.30;99.90;;;;;;5014467;28;20187;-85
2024/03/04 01:33:07;;;;;;;22.77;13.90;;;6.20;99.90;;;;;;5004862;28;20521;-86
2024/03/04 01:35:34;;;;;;;20.77;13.93;;;6.20;99.90;;;;;;5002652;28;20183;-86
2024/03/04 01:38:02;;;;;;;21.00;13.47;;;6.20;99.90;;;;;;4995876;28;20195;-86
2024/03/04 01:40:30;;;;;;;20.87;12.03;;;6.30;99.90;;;;;;4996416;28;20689;-85
2024/03/04 01:42:57;;;;;;;17.93;11.13;;;6.30;99.90;;;;;;4999768;28;20267;-85
2024/03/04 01:45:27;;;;;;;15.67;10.70;;;6.30;99.90;;;;;;4992508;28;20192;-86
2024/03/04 01:48:01;;;;;;;19.27;12.37;;;6.30;99.90;;;;;;5024954;28;20179;-86
2024/03/04 01:50:33;;;;;;;20.40;12.13;;;6.30;99.90;;;;;;4999461;28;20281;-86
2024/03/04 01:53:02;;;;;;;18.33;10.87;;;6.30;99.90;;;;;;4992338;28;20183;-85
2024/03/04 01:55:34;;;;;;;17.73;11.50;;;6.20;99.90;;;;;;4991438;28;20249;-84
2024/03/04 01:58:04;;;;;;;18.50;11.97;;;6.10;99.90;;;;;;4995650;28;20635;-85
2024/03/04 02:00:39;;;;;;;23.83;12.47;;;6.20;99.90;;;;;;5013867;28;20179;-85
2024/03/04 02:03:09;;;;;;;18.77;12.23;;;6.20;99.90;;;;;;4999446;28;20252;-86
2024/03/04 02:05:36;;;;;;;19.23;13.40;;;6.20;99.90;;;;;;4998990;28;20183;-86
2024/03/04 02:08:03;;;;;;;19.83;13.23;;;6.10;99.90;;;;;;4995109;28;20521;-86
2024/03/04 02:10:29;;;;;;;20.83;13.00;;;6.00;99.90;;;;;;4987963;28;20184;-86
2024/03/04 02:12:56;;;;;;;21.33;13.30;;;5.90;99.90;;;;;;4999309;28;20294;-86
2024/03/04 02:15:23;;;;;;;20.87;12.93;;;5.80;99.90;;;;;;5007579;28;20202;-86
2024/03/04 02:17:55;;;;;;;18.33;13.03;;;5.80;99.90;;;;;;5001563;28;20720;-86
2024/03/04 02:20:23;;;;;;;16.90;11.97;;;5.80;99.90;;;;;;5011797;28;20233;-86
2024/03/04 02:22:49;;;;;;;18.73;11.33;;;5.90;99.90;;;;;;5007206;28;20214;-86
2024/03/04 02:25:16;;;;;;;19.67;12.67;;;5.80;99.90;;;;;;4998702;28;20195;-86
2024/03/04 02:27:42;;;;;;;19.07;13.10;;;5.80;99.90;;;;;;4998387;28;20227;-86
2024/03/04 02:30:08;;;;;;;19.83;12.47;;;5.70;99.90;;;;;;4998669;28;20186;-86
2024/03/04 02:32:35;;;;;;;17.03;11.43;;;5.70;99.90;;;;;;4998736;28;20240;-86
2024/03/04 02:35:05;;;;;;;17.37;11.40;;;5.70;99.90;;;;;;4998993;28;20697;-86
2024/03/04 02:37:37;;;;;;;18.97;13.30;;;5.70;99.90;;;;;;5006742;28;20210;-86
2024/03/04 02:40:10;;;;;;;16.07;11.60;;;5.60;99.90;;;;;;5011828;28;20321;-86
2024/03/04 02:42:36;;;;;;;14.90;11.33;;;5.50;99.90;;;;;;4988268;28;20196;-86
2024/03/04 02:45:02;;;;;;;20.60;13.47;;;5.50;99.90;;;;;;4990418;28;20190;-86
2024/03/04 02:47:28;;;;;;;20.17;12.83;;;5.50;99.90;;;;;;4998552;28;20206;-85
2024/03/04 02:49:54;;;;;;;19.73;14.03;;;5.40;99.90;;;;;;4998387;28;20183;-86
2024/03/04 02:52:20;;;;;;;20.27;13.80;;;5.40;99.90;;;;;;4998681;28;20637;-86
2024/03/04 02:54:45;;;;;;;18.43;13.83;;;5.30;99.90;;;;;;4998288;28;20183;-86
2024/03/04 02:57:11;;;;;;;23.20;13.87;;;5.40;99.90;;;;;;4992802;28;20222;-86
2024/03/04 02:59:38;;;;;;;58.27;12.23;;;5.40;99.90;;;;;;5014736;28;20186;-86
2024/03/04 03:02:05;;;;;;;19.77;13.17;;;5.40;99.90;;;;;;4991468;28;20190;-86
2024/03/04 03:04:31;;;;;;;16.47;11.93;;;5.50;99.90;;;;;;4998178;28;20183;-84
2024/03/04 03:06:57;;;;;;;17.40;11.37;;;5.60;99.90;;;;;;4986081;28;20205;-85
2024/03/04 03:09:29;;;;;;;13.33;10.70;;;5.60;99.90;;;;;;5002589;28;20179;-87
2024/03/04 03:11:55;;;;;;;19.77;11.53;;;5.50;99.90;;;;;;4998547;28;20248;-86
2024/03/04 03:14:21;;;;;;;19.57;12.23;;;5.40;99.90;;;;;;4998002;28;20607;-85
2024/03/04 03:16:49;;;;;;;20.37;13.57;;;5.40;99.90;;;;;;4997909;28;20310;-85
2024/03/04 03:19:31;;;;;;;24.73;13.47;;;5.40;99.90;;;;;;4992085;28;20222;-86
2024/03/04 03:21:56;;;;;;;42.57;13.77;;;5.40;99.90;;;;;;4998380;28;20637;-86
2024/03/04 03:24:25;;;;;;;48.60;16.77;;;5.30;99.90;;;;;;5008309;28;20176;-87
2024/03/04 03:26:51;;;;;;;50.13;18.70;;;5.00;99.90;;;;;;4986043;28;20246;-86
2024/03/04 03:31:54;;;;;;;46.60;21.10;;;5.00;99.90;;;;;;5010963;28;20257;-84
2024/03/04 03:34:20;;;;;;;48.83;21.13;;;5.00;99.90;;;;;;4983217;28;20615;-84
2024/03/04 03:36:46;;;;;;;44.43;20.40;;;5.00;99.90;;;;;;4969447;28;20226;-85
2024/03/04 03:39:12;;;;;;;79.77;17.33;;;5.10;99.90;;;;;;4972356;28;20185;-85
2024/03/04 03:41:39;;;;;;;106.60;18.37;;;5.10;99.90;;;;;;4984092;28;20191;-85
2024/03/04 03:44:06;;;;;;;50.20;20.27;;;5.00;99.90;;;;;;4986468;28;20184;-84
2024/03/04 03:46:32;;;;;;;55.30;19.83;;;5.00;99.90;;;;;;4978213;28;20190;-84
2024/03/04 03:48:58;;;;;;;68.57;18.93;;;5.10;99.90;;;;;;4989491;28;20179;-85
2024/03/04 03:51:26;;;;;;;147.30;19.70;;;5.00;99.90;;;;;;4982154;28;20278;-85
2024/03/04 03:53:52;;;;;;;67.40;21.43;;;5.00;99.90;;;;;;4999574;28;20177;-85
2024/03/04 03:56:18;;;;;;;52.90;19.60;;;4.90;99.90;;;;;;4979385;28;20213;-85
2024/03/04 03:58:48;;;;;;;51.27;20.37;;;5.00;99.90;;;;;;4997354;28;20672;-85
2024/03/04 04:01:15;;;;;;;83.67;20.53;;;5.00;99.90;;;;;;4996746;28;20197;-85
2024/03/04 04:03:41;;;;;;;46.50;17.23;;;4.90;99.90;;;;;;4994594;28;20608;-85
2024/03/04 04:06:07;;;;;;;52.73;18.93;;;4.90;99.90;;;;;;4966715;28;20188;-85
2024/03/04 04:08:33;;;;;;;41.83;17.03;;;4.90;99.90;;;;;;4966975;28;20253;-85
2024/03/04 04:10:59;;;;;;;24.77;15.13;;;4.90;99.90;;;;;;4981873;28;20183;-85
2024/03/04 04:13:25;;;;;;;46.30;17.27;;;4.80;99.90;;;;;;4997971;28;20192;-84
2024/03/04 04:15:51;;;;;;;30.97;17.03;;;4.90;99.90;;;;;;4977366;28;20187;-84
2024/03/04 04:18:17;;;;;;;28.77;15.07;;;4.80;99.90;;;;;;4988908;28;20196;-85
2024/03/04 04:20:44;;;;;;;37.87;18.33;;;4.90;99.90;;;;;;4968291;28;20630;-85
2024/03/04 04:23:12;;;;;;;31.30;16.67;;;4.80;99.90;;;;;;4985816;28;20195;-85
2024/03/04 04:25:39;;;;;;;28.20;17.37;;;4.70;99.90;;;;;;4985694;28;20180;-83
2024/03/04 04:28:04;;;;;;;28.67;15.57;;;4.70;99.90;;;;;;4977569;28;20194;-85
2024/03/04 04:30:30;;;;;;;30.37;13.80;;;4.80;99.90;;;;;;4969058;28;20322;-84
2024/03/04 04:32:56;;;;;;;29.67;14.47;;;4.80;99.90;;;;;;4993906;28;20184;-85
2024/03/04 04:35:22;;;;;;;26.93;14.50;;;4.70;99.90;;;;;;4971147;28;20188;-85
2024/03/04 04:37:47;;;;;;;51.23;16.20;;;4.70;99.90;;;;;;4974254;28;20406;-85
2024/03/04 04:40:19;;;;;;;30.67;15.10;;;4.60;99.90;;;;;;4972104;28;20206;-85
2024/03/04 04:42:58;;;;;;;47.83;13.93;;;4.50;99.90;;;;;;4993933;28;20615;-85
2024/03/04 04:45:26;;;;;;;30.30;14.33;;;4.50;99.90;;;;;;4969649;28;20187;-85
2024/03/04 04:47:55;;;;;;;28.70;15.57;;;4.50;99.90;;;;;;4969826;28;20191;-85
2024/03/04 04:50:21;;;;;;;54.53;15.93;;;4.60;99.90;;;;;;4997470;28;20180;-85
2024/03/04 04:52:48;;;;;;;45.40;16.10;;;4.60;99.90;;;;;;5005278;28;20519;-85
2024/03/04 04:55:14;;;;;;;39.90;14.83;;;4.60;99.90;;;;;;4981200;28;20187;-85
2024/03/04 04:57:40;;;;;;;45.03;16.53;;;4.70;99.90;;;;;;4979663;28;20218;-85
2024/03/04 05:00:06;;;;;;;37.57;15.77;;;4.70;99.90;;;;;;4979104;28;20183;-85
2024/03/04 05:02:37;;;;;;;35.97;15.43;;;4.70;99.90;;;;;;5000142;28;20188;-86
2024/03/04 05:05:03;;;;;;;36.47;14.93;;;4.60;99.90;;;;;;4980908;28;20187;-86
2024/03/04 05:07:29;;;;;;;31.20;16.17;;;4.60;99.90;;;;;;4988853;28;20180;-85
2024/03/04 05:09:55;;;;;;;25.73;14.53;;;4.70;99.90;;;;;;4980861;28;20631;-85
2024/03/04 05:12:22;;;;;;;32.30;15.07;;;4.60;99.90;;;;;;4974127;28;20181;-86
2024/03/04 05:14:47;;;;;;;31.63;16.23;;;4.60;99.90;;;;;;4971771;28;20184;-85
2024/03/04 05:17:13;;;;;;;30.63;15.77;;;4.60;99.90;;;;;;4980575;28;20219;-85
2024/03/04 05:19:39;;;;;;;32.03;16.03;;;4.60;99.90;;;;;;4981638;28;20184;-85
2024/03/04 05:22:06;;;;;;;46.60;14.90;;;4.60;99.90;;;;;;5003491;28;20184;-84
2024/03/04 05:24:32;;;;;;;33.10;15.33;;;4.60;99.90;;;;;;4996881;28;20184;-84
2024/03/04 05:26:58;;;;;;;38.83;15.53;;;4.60;99.90;;;;;;4973063;28;20186;-85
2024/03/04 05:29:24;;;;;;;24.57;15.20;;;4.70;99.90;;;;;;4996848;28;20658;-85
2024/03/04 05:31:57;;;;;;;32.17;15.00;;;4.70;99.90;;;;;;5007031;28;20330;-85
2024/03/04 05:34:24;;;;;;;43.13;15.83;;;4.70;99.90;;;;;;4991788;28;20179;-85
2024/03/04 05:36:49;;;;;;;51.40;16.60;;;4.70;99.90;;;;;;4991426;28;20298;-84
2024/03/04 05:39:21;;;;;;;49.93;15.37;;;4.60;99.90;;;;;;5001804;28;20199;-85
2024/03/04 05:41:48;;;;;;;67.60;15.83;;;4.60;99.90;;;;;;4980325;28;20188;-85
2024/03/04 05:44:15;;;;;;;49.80;14.67;;;4.50;99.90;;;;;;4972247;28;20202;-86
2024/03/04 05:46:43;;;;;;;31.47;13.53;;;4.60;99.90;;;;;;4970517;28;20653;-85
2024/03/04 05:49:13;;;;;;;35.50;15.57;;;4.70;99.90;;;;;;4968468;28;20184;-85
2024/03/04 05:51:40;;;;;;;33.13;14.10;;;4.70;99.90;;;;;;4986638;28;20190;-83
2024/03/04 05:54:08;;;;;;;46.23;14.13;;;4.60;99.90;;;;;;4986615;28;20184;-86
2024/03/04 05:56:34;;;;;;;27.10;13.13;;;4.50;99.90;;;;;;4971853;28;20212;-85
2024/03/04 05:58:59;;;;;;;19.93;13.57;;;4.40;99.90;;;;;;4971901;28;20238;-86
2024/03/04 06:01:25;;;;;;;24.17;12.67;;;4.50;99.90;;;;;;4996261;28;20184;-85
2024/03/04 06:04:02;;;;;;;29.80;13.60;;;4.50;99.90;;;;;;5013165;28;20183;-85
2024/03/04 06:06:28;;;;;;;22.73;13.40;;;4.50;99.90;;;;;;4987991;28;20183;-85
2024/03/04 06:08:56;;;;;;;18.07;12.70;;;4.50;99.90;;;;;;4997086;28;20745;-86
2024/03/04 06:11:22;;;;;;;21.27;12.17;;;4.60;99.90;;;;;;4970945;28;20176;-86
2024/03/04 06:13:49;;;;;;;29.17;12.80;;;4.70;99.90;;;;;;4982031;28;20722;-85
2024/03/04 06:16:15;;;;;;;26.47;12.83;;;4.60;99.90;;;;;;5000847;28;20212;-85
2024/03/04 06:18:41;;;;;;;33.40;12.97;;;4.60;99.90;;;;;;4971311;28;20210;-86
2024/03/04 06:21:07;;;;;;;22.73;12.53;;;4.60;99.90;;;;;;4995797;28;20191;-85
2024/03/04 06:23:37;;;;;;;17.33;11.93;;;4.50;99.90;;;;;;4987096;28;20176;-85
2024/03/04 06:26:08;;;;;;;28.57;11.93;;;4.50;99.90;;;;;;4995664;28;20184;-85
2024/03/04 06:28:35;;;;;;;18.13;10.97;;;4.50;99.90;;;;;;4980076;28;20254;-84
2024/03/04 06:31:01;;;;;;;38.20;12.20;;;4.50;99.90;;;;;;4999329;28;20576;-85
2024/03/04 06:33:28;;;;;;;47.37;11.43;;;4.50;99.90;;;;;;4983568;28;20242;-85
2024/03/04 06:35:54;;;;;;;37.70;12.60;;;4.50;99.90;;;;;;4984148;28;20180;-86
2024/03/04 06:38:19;;;;;;;47.00;13.40;;;4.50;99.90;;;;;;4983745;28;20236;-86
2024/03/04 06:40:45;;;;;;;38.13;12.57;;;4.50;99.90;;;;;;4992106;28;20191;-86
2024/03/04 06:43:17;;;;;;;41.20;12.97;;;4.60;99.90;;;;;;4980689;28;20669;-85
2024/03/04 06:45:43;;;;;;;45.23;13.00;;;4.60;99.90;;;;;;4985550;28;20195;-88
2024/03/04 06:48:08;;;;;;;42.13;12.30;;;4.70;99.90;;;;;;4975938;28;20193;-85
2024/03/04 06:50:35;;;;;;;41.00;12.47;;;4.70;99.90;;;;;;4975731;28;20192;-85
2024/03/04 06:53:03;;;;;;;36.77;12.47;;;4.70;99.90;;;;;;4983553;28;20250;-86
2024/03/04 06:55:28;;;;;;;22.43;11.53;;;4.70;99.90;;;;;;4976934;28;20180;-87
2024/03/04 06:57:54;;;;;;;48.10;12.50;;;4.80;99.90;;;;;;4966768;28;20220;-86
2024/03/04 07:00:21;;;;;;;46.70;12.17;;;4.80;99.90;;;;;;4991246;28;20187;-86
2024/03/04 07:02:47;;;;;;;47.90;13.10;;;4.90;99.90;;;;;;4974698;28;20503;-86
2024/03/04 07:05:12;;;;;;;18.93;12.80;;;4.90;99.90;;;;;;4975499;28;20702;-87
2024/03/04 07:07:38;;;;;;;24.17;12.43;;;5.00;99.90;;;;;;4994352;28;20623;-88
2024/03/04 07:10:04;;;;;;;53.73;13.20;;;5.10;99.90;;;;;;4986977;28;20282;-86
2024/03/04 07:12:31;;;;;;;26.83;13.13;;;5.10;99.90;;;;;;4978592;28;20188;-85
2024/03/04 07:14:56;;;;;;;23.53;13.33;;;5.00;99.90;;;;;;4977548;28;20238;-84
2024/03/04 07:17:22;;;;;;;28.33;13.57;;;5.00;99.90;;;;;;4994231;28;20219;-84
2024/03/04 07:19:48;;;;;;;33.63;13.30;;;5.00;99.90;;;;;;4991752;28;20611;-85
2024/03/04 07:22:14;;;;;;;28.43;13.40;;;5.10;99.90;;;;;;4988375;28;20662;-85
2024/03/04 07:24:40;;;;;;;35.17;13.27;;;5.10;99.90;;;;;;4994411;28;20191;-84
2024/03/04 07:27:07;;;;;;;27.17;13.07;;;5.20;99.90;;;;;;4989853;28;20196;-84
2024/03/04 07:29:33;;;;;;;56.40;13.43;;;5.20;99.90;;;;;;4983959;28;20180;-84
2024/03/04 07:31:59;;;;;;;28.10;12.27;;;5.20;99.90;;;;;;5013781;28;20187;-84
2024/03/04 07:34:26;;;;;;;35.80;12.63;;;5.30;99.90;;;;;;5006513;28;20242;-84
2024/03/04 07:36:52;;;;;;;37.30;12.03;;;5.30;99.90;;;;;;4978027;28;20250;-87
2024/03/04 07:39:18;;;;;;;30.03;13.27;;;5.30;99.90;;;;;;4976447;28;20245;-83
2024/03/04 07:41:44;;;;;;;49.83;13.10;;;5.20;99.90;;;;;;5004876;28;20184;-83
2024/03/04 07:44:11;;;;;;;42.63;13.20;;;5.20;99.90;;;;;;4994517;28;20183;-83
2024/03/04 07:46:37;;;;;;;31.73;13.33;;;5.20;99.90;;;;;;4998281;28;20188;-84
2024/03/04 07:49:02;;;;;;;45.40;12.93;;;5.30;99.90;;;;;;5001284;28;20526;-83
2024/03/04 07:51:28;;;;;;;27.13;12.70;;;5.30;99.90;;;;;;4997721;28;20190;-85
2024/03/04 07:53:56;;;;;;;48.70;13.93;;;5.30;99.90;;;;;;4987138;28;20175;-84
2024/03/04 07:56:22;;;;;;;61.43;13.80;;;5.30;99.90;;;;;;4980586;28;20213;-84
2024/03/04 07:58:47;;;;;;;29.97;14.30;;;5.30;99.90;;;;;;5002981;28;20275;-84
2024/03/04 08:01:13;;;;;;;39.93;15.03;;;5.30;99.90;;;;;;4985838;28;20523;-86
2024/03/04 08:03:46;;;;;;;38.87;16.70;;;5.40;99.90;;;;;;4994709;28;20176;-84
2024/03/04 08:06:11;;;;;;;54.43;15.43;;;5.40;99.90;;;;;;5001400;28;20175;-86
2024/03/04 08:08:37;;;;;;;29.73;15.43;;;5.50;99.90;;;;;;4982264;28;20657;-87
2024/03/04 08:11:04;;;;;;;50.07;15.77;;;5.50;99.90;;;;;;4997539;28;20189;-86
2024/03/04 08:13:30;;;;;;;38.23;14.70;;;5.50;99.90;;;;;;4986845;28;20183;-86
2024/03/04 08:15:56;;;;;;;19.47;14.97;;;5.60;99.90;;;;;;4982940;28;20274;-86
2024/03/04 08:18:22;;;;;;;36.10;15.50;;;5.60;99.90;;;;;;4994386;28;20191;-85
2024/03/04 08:20:51;;;;;;;28.90;15.60;;;5.70;99.90;;;;;;4979434;28;20184;-86
2024/03/04 08:23:17;;;;;;;47.47;15.77;;;5.70;99.90;;;;;;4974231;28;20619;-86
2024/03/04 08:25:54;;;;;;;32.10;17.67;;;5.70;99.90;;;;;;4987889;28;20194;-86
2024/03/04 08:28:20;;;;;;;52.83;17.27;;;5.70;99.90;;;;;;4987097;28;20188;-86
2024/03/04 08:30:46;;;;;;;57.53;16.20;;;5.80;99.90;;;;;;4998226;28;20266;-86
2024/03/04 08:33:14;;;;;;;44.27;17.77;;;5.80;99.90;;;;;;4987141;28;20187;-85
2024/03/04 08:35:47;;;;;;;28.10;17.60;;;5.90;99.90;;;;;;5002827;28;20188;-85
2024/03/04 08:38:13;;;;;;;36.30;17.53;;;5.90;99.90;;;;;;4987813;28;20207;-85
2024/03/04 08:40:38;;;;;;;34.70;17.80;;;6.00;99.90;;;;;;4981605;28;20658;-87
2024/03/04 08:43:05;;;;;;;30.17;18.60;;;6.00;99.90;;;;;;5000566;28;20196;-86
2024/03/04 08:45:31;;;;;;;64.27;18.73;;;6.10;99.90;;;;;;5005855;28;20179;-86
2024/03/04 08:47:57;;;;;;;36.13;18.77;;;6.20;99.90;;;;;;4989476;28;20188;-86
2024/03/04 08:50:23;;;;;;;45.67;18.43;;;6.20;99.90;;;;;;4998229;28;20230;-86
2024/03/04 08:52:48;;;;;;;26.73;19.07;;;6.30;99.90;;;;;;5000762;28;20294;-86
2024/03/04 08:55:17;;;;;;;61.37;19.87;;;6.40;99.90;;;;;;4994593;28;20568;-87
2024/03/04 08:57:42;;;;;;;29.10;19.67;;;6.40;99.90;;;;;;5000519;28;20603;-86
2024/03/04 09:00:10;;;;;;;79.00;21.53;;;6.50;99.90;;;;;;4976085;28;20219;-87
2024/03/04 09:02:39;;;;;;;55.23;22.17;;;6.50;99.90;;;;;;4970398;28;20192;-87
2024/03/04 09:05:08;;;;;;;59.47;22.33;;;6.60;99.90;;;;;;4978980;28;20282;-86
2024/03/04 09:07:35;;;;;;;37.50;20.70;;;6.60;99.90;;;;;;5005240;28;20637;-85
2024/03/04 09:10:00;;;;;;;36.43;21.43;;;6.70;99.90;;;;;;4999282;28;20259;-87
2024/03/04 09:12:27;;;;;;;35.47;22.23;;;6.70;99.90;;;;;;4986819;28;20222;-86
2024/03/04 09:14:54;;;;;;;58.23;22.87;;;6.80;99.90;;;;;;4997603;28;20178;-85
2024/03/04 09:17:20;;;;;;;66.37;21.83;;;6.80;99.90;;;;;;5000611;28;20234;-85
2024/03/04 09:19:46;;;;;;;37.60;22.03;;;6.70;99.90;;;;;;4992055;28;20184;-85
2024/03/04 09:22:12;;;;;;;48.93;22.50;;;6.70;99.90;;;;;;4982745;28;20200;-84
2024/03/04 09:24:43;;;;;;;41.10;22.80;;;6.80;99.90;;;;;;5003269;28;20182;-85
2024/03/04 09:27:09;;;;;;;39.00;22.10;;;6.90;99.90;;;;;;4988077;28;20218;-87
2024/03/04 09:29:35;;;;;;;51.47;24.63;;;6.90;99.90;;;;;;4999255;28;20220;-84
2024/03/04 09:32:01;;;;;;;47.40;24.13;;;7.00;99.90;;;;;;4984660;28;20219;-85
2024/03/04 09:34:26;;;;;;;41.87;23.77;;;7.00;99.90;;;;;;4982648;28;20566;-85
2024/03/04 09:36:52;;;;;;;50.40;23.87;;;7.10;99.90;;;;;;4986761;28;20220;-84
2024/03/04 09:39:18;;;;;;;36.50;22.53;;;7.20;99.90;;;;;;5003762;28;20180;-84
2024/03/04 09:41:44;;;;;;;66.87;22.63;;;7.20;99.90;;;;;;4986852;28;20645;-86
2024/03/04 09:44:09;;;;;;;42.33;23.53;;;7.10;99.90;;;;;;4985496;28;20263;-85
2024/03/04 09:46:37;;;;;;;60.43;24.27;;;7.10;99.90;;;;;;4981751;28;20263;-85
2024/03/04 09:49:05;;;;;;;43.90;24.90;;;7.10;99.90;;;;;;4986203;28;20184;-87
2024/03/04 09:51:32;;;;;;;46.10;26.23;;;7.10;99.90;;;;;;4992690;28;20558;-85
2024/03/04 09:53:59;;;;;;;65.00;25.77;;;7.10;99.90;;;;;;4980796;28;20201;-87
2024/03/04 09:56:28;;;;;;;49.60;25.07;;;7.20;99.90;;;;;;4989952;28;20297;-85
2024/03/04 09:58:55;;;;;;;68.23;26.80;;;7.30;99.90;;;;;;5007364;28;20214;-84
2024/03/04 10:01:22;;;;;;;47.57;26.27;;;7.20;99.90;;;;;;4983693;28;20184;-86
2024/03/04 10:03:49;;;;;;;49.40;28.53;;;7.30;99.90;;;;;;4978104;28;20196;-87
2024/03/04 10:06:16;;;;;;;63.90;32.67;;;7.30;99.90;;;;;;4999503;28;20215;-86
2024/03/04 10:08:42;;;;;;;62.47;34.50;;;7.40;99.90;;;;;;5005426;28;20274;-87
2024/03/04 10:11:09;;;;;;;76.10;36.73;;;7.40;99.90;;;;;;4998490;28;20222;-87
2024/03/04 10:13:35;;;;;;;63.27;34.97;;;7.40;99.90;;;;;;4981415;28;20732;-89
2024/03/04 10:16:09;;;;;;;64.47;35.30;;;7.40;99.90;;;;;;4985253;28;20538;-85
2024/03/04 10:18:35;;;;;;;55.97;32.60;;;7.40;99.90;;;;;;5008645;28;20205;-95
2024/03/04 10:21:01;;;;;;;44.87;28.00;;;7.50;99.90;;;;;;4982918;28;20191;-84
2024/03/04 10:23:26;;;;;;;47.80;29.17;;;7.50;99.90;;;;;;4983835;28;20195;-85
2024/03/04 10:26:09;;;;;;;40.40;26.57;;;7.60;99.90;;;;;;4985956;28;20339;-87
2024/03/04 10:28:38;;;;;;;34.33;24.45;;;7.70;99.90;;;;;;4999818;28;20231;-85
2024/03/04 10:31:22;;;;;;;40.20;24.77;;;7.70;99.90;;;;;;4998262;28;20220;-85
2024/03/04 10:33:48;;;;;;;35.13;24.63;;;7.80;99.90;;;;;;4997793;28;20241;-85
2024/03/04 10:36:21;;;;;;;33.72;24.63;;;7.80;99.90;;;;;;5003206;28;20199;-86
2024/03/04 10:38:48;;;;;;;37.03;22.93;;;7.80;99.90;;;;;;4977508;28;20191;-87
2024/03/04 10:41:23;;;;;;;37.37;24.80;;;7.90;99.90;;;;;;4986341;28;20509;-87
2024/03/04 10:43:51;;;;;;;49.90;25.17;;;7.90;99.90;;;;;;4998331;28;20182;-85
2024/03/04 10:46:20;;;;;;;38.28;25.13;;;7.90;99.90;;;;;;5002939;28;20180;-86
2024/03/04 10:48:47;;;;;;;36.17;24.73;;;7.90;99.90;;;;;;4995659;28;20217;-86
2024/03/04 10:51:15;;;;;;;34.43;24.37;;;8.00;99.90;;;;;;4984433;28;20242;-88
2024/03/04 10:53:42;;;;;;;36.50;24.60;;;8.00;99.90;;;;;;5004903;28;20278;-86
2024/03/04 10:56:16;;;;;;;39.75;26.23;;;8.10;99.90;;;;;;4986294;28;20258;-86
2024/03/04 10:58:43;;;;;;;36.60;24.90;;;8.20;99.90;;;;;;4980290;28;20184;-86
2024/03/04 11:01:13;;;;;;;40.72;27.60;;;8.20;99.90;;;;;;5014539;28;20183;-88
2024/03/04 11:04:00;;;;;;;39.47;27.30;;;8.20;99.90;;;;;;4999061;28;20230;-87
2024/03/04 11:06:28;;;;;;;38.42;25.67;;;8.30;99.90;;;;;;4997912;28;20270;-87
2024/03/04 11:08:59;;;;;;;39.70;26.77;;;8.30;99.90;;;;;;4994468;28;20186;-86
2024/03/04 11:11:38;;;;;;;36.30;25.33;;;8.30;99.90;;;;;;5003915;28;20182;-86
2024/03/04 11:14:11;;;;;;;37.30;26.70;;;8.40;99.90;;;;;;4983852;28;20562;-85
2024/03/04 11:16:46;;;;;;;42.75;28.17;;;8.40;99.90;;;;;;5013991;28;20265;-87
2024/03/04 11:19:22;;;;;;;39.70;27.60;;;8.30;99.90;;;;;;4991879;28;20179;-86
2024/03/04 11:21:49;;;;;;;40.10;27.02;;;8.30;99.90;;;;;;4995191;28;20634;-87
2024/03/04 11:24:16;;;;;;;40.83;26.98;;;8.40;99.90;;;;;;4992037;28;20187;-86
2024/03/04 11:26:43;;;;;;;41.83;28.20;;;8.40;99.90;;;;;;4996185;28;20186;-87
2024/03/04 11:29:10;;;;;;;46.60;28.90;;;8.50;99.90;;;;;;5008530;28;20175;-85
2024/03/04 11:31:36;;;;;;;38.53;27.73;;;8.50;99.90;;;;;;5014629;28;20239;-87
2024/03/04 11:34:08;;;;;;;41.47;28.15;;;8.60;99.90;;;;;;4997289;28;20237;-85
2024/03/04 11:36:35;;;;;;;45.90;29.42;;;8.60;99.90;;;;;;4989193;28;20207;-86
2024/03/04 11:39:15;;;;;;;41.80;28.88;;;8.60;99.90;;;;;;4997184;28;20217;-85
2024/03/04 11:41:47;;;;;;;40.33;28.13;;;8.70;99.90;;;;;;4997125;28;20179;-85
2024/03/04 11:44:23;;;;;;;44.58;30.08;;;8.70;99.90;;;;;;5014479;28;20182;-86
2024/03/04 11:46:49;;;;;;;44.15;29.85;;;8.70;99.90;;;;;;4996297;28;20179;-87
2024/03/04 11:49:29;;;;;;;43.50;31.13;;;8.70;99.90;;;;;;4996413;28;20186;-86
2024/03/04 11:52:20;;;;;;;44.03;30.63;;;8.80;99.90;;;;;;4996840;28;20640;-85
2024/03/04 11:54:47;;;;;;;42.20;29.90;;;8.90;99.90;;;;;;4989329;28;20284;-86
2024/03/04 11:57:15;;;;;;;46.35;31.05;;;8.90;99.90;;;;;;4996936;28;20218;-87
2024/03/04 12:00:02;;;;;;;41.42;29.05;;;8.90;99.90;;;;;;5000326;28;20183;-86
2024/03/04 12:02:28;;;;;;;44.35;31.05;;;8.90;99.90;;;;;;5000628;28;20202;-90
2024/03/04 12:04:55;;;;;;;42.67;29.63;;;8.90;99.90;;;;;;5018678;28;20184;-87
2024/03/04 12:07:21;;;;;;;43.30;30.40;;;9.00;99.90;;;;;;5017238;28;20269;-88
2024/03/04 12:09:47;;;;;;;46.65;31.90;;;9.00;99.90;;;;;;5001043;28;20183;-87
2024/03/04 12:12:14;;;;;;;45.00;31.33;;;9.00;99.90;;;;;;5017154;28;20183;-88
2024/03/04 12:14:42;;;;;;;47.53;32.72;;;9.10;99.90;;;;;;5010101;28;20675;-86
2024/03/04 12:17:08;;;;;;;47.90;32.15;;;9.10;99.90;;;;;;5000832;28;20223;-88
2024/03/04 12:19:33;;;;;;;48.40;32.03;;;9.10;99.90;;;;;;5018242;28;20179;-86
2024/03/04 12:22:00;;;;;;;47.33;31.80;;;9.20;99.90;;;;;;4996482;28;20194;-87
2024/03/04 12:24:26;;;;;;;51.70;32.58;;;9.20;99.90;;;;;;5014513;28;20179;-88
2024/03/04 12:26:55;;;;;;;50.00;33.05;;;9.20;99.90;;;;;;5014562;28;20653;-86
2024/03/04 12:29:25;;;;;;;50.45;33.55;;;9.30;99.90;;;;;;4979613;28;20176;-85
2024/03/04 12:31:55;;;;;;;47.45;31.67;;;9.20;99.90;;;;;;5016041;28;20253;-86
2024/03/04 12:34:22;;;;;;;49.20;33.10;;;9.30;99.90;;;;;;4994043;28;20275;-86
2024/03/04 12:36:52;;;;;;;49.47;33.22;;;9.30;99.90;;;;;;5017015;28;20238;-86
2024/03/04 12:39:21;;;;;;;53.60;34.00;;;9.30;99.90;;;;;;5000433;28;20179;-86
2024/03/04 12:41:50;;;;;;;49.65;33.53;;;9.20;99.90;;;;;;5000372;28;20218;-85